createdAt,value
2023-01-23T00:00:17.942Z,34.07
2023-01-23T00:02:48.005Z,34.87
2023-01-23T00:05:17.817Z,35.53
2023-01-23T00:07:47.596Z,34.00
2023-01-23T00:10:18.104Z,30.20
2023-01-23T00:12:53.415Z,29.67
2023-01-23T00:15:23.474Z,29.03
2023-01-23T00:17:53.323Z,32.17
2023-01-23T00:20:23.251Z,37.67
2023-01-23T00:22:53.062Z,31.80
2023-01-23T00:25:22.763Z,33.73
2023-01-23T00:27:55.193Z,34.10
2023-01-23T00:30:25.052Z,28.93
2023-01-23T00:32:54.981Z,35.07
2023-01-23T00:35:24.852Z,30.10
2023-01-23T00:37:54.608Z,26.97
2023-01-23T00:40:24.621Z,29.00
2023-01-23T00:42:57.227Z,29.70
2023-01-23T00:45:27.008Z,29.37
2023-01-23T00:47:57.031Z,25.30
2023-01-23T00:50:26.803Z,28.17
2023-01-23T00:52:56.642Z,25.67
2023-01-23T00:55:26.408Z,23.67
2023-01-23T00:57:59.738Z,29.20
2023-01-23T01:00:29.739Z,24.13
2023-01-23T01:02:59.666Z,27.63
2023-01-23T01:05:29.691Z,27.73
2023-01-23T01:07:59.734Z,25.97
2023-01-23T01:10:30.566Z,28.47
2023-01-23T01:13:05.172Z,26.10
2023-01-23T01:15:35.133Z,23.70
2023-01-23T01:18:08.068Z,23.40
2023-01-23T01:20:38.107Z,23.97
2023-01-23T01:23:07.847Z,28.60
2023-01-23T01:25:38.232Z,23.70
2023-01-23T01:28:11.147Z,21.63
2023-01-23T01:30:41.427Z,20.40
2023-01-23T01:33:11.723Z,24.67
2023-01-23T01:35:43.106Z,21.90
2023-01-23T01:38:12.999Z,19.70
2023-01-23T01:40:42.786Z,20.60
2023-01-23T01:43:21.635Z,19.40
2023-01-23T01:46:09.587Z,21.97
2023-01-23T01:48:43.773Z,22.57
2023-01-23T01:51:22.298Z,20.40
2023-01-23T01:53:59.700Z,19.03
2023-01-23T01:56:30.699Z,23.57
2023-01-23T01:59:04.940Z,20.17
2023-01-23T02:01:35.108Z,21.83
2023-01-23T02:04:05.034Z,20.90
2023-01-23T02:06:35.695Z,18.90
2023-01-23T02:09:11.662Z,18.13
2023-01-23T02:11:41.769Z,21.80
2023-01-23T02:14:15.114Z,18.77
2023-01-23T02:16:51.370Z,19.83
2023-01-23T02:19:34.894Z,21.70
2023-01-23T02:22:11.979Z,18.97
2023-01-23T02:24:47.596Z,20.53
2023-01-23T02:27:19.897Z,20.50
2023-01-23T02:29:52.154Z,20.97
2023-01-23T02:32:24.525Z,19.07
2023-01-23T02:34:57.780Z,20.27
2023-01-23T02:37:34.102Z,21.63
2023-01-23T02:40:03.889Z,22.00
2023-01-23T02:42:37.450Z,24.70
2023-01-23T02:45:08.272Z,21.43
2023-01-23T02:47:38.170Z,18.43
2023-01-23T02:50:08.864Z,21.10
2023-01-23T02:52:38.735Z,22.33
2023-01-23T02:55:09.649Z,19.33
2023-01-23T02:57:42.145Z,22.17
2023-01-23T03:00:16.998Z,24.03
2023-01-23T03:02:47.735Z,19.43
2023-01-23T03:05:17.989Z,23.77
2023-01-23T03:07:47.827Z,22.80
2023-01-23T03:10:18.307Z,21.97
2023-01-23T03:12:50.968Z,21.97
2023-01-23T03:15:21.035Z,24.03
2023-01-23T03:17:50.953Z,20.63
2023-01-23T03:20:23.315Z,23.50
2023-01-23T03:22:53.264Z,22.70
2023-01-23T03:25:23.344Z,21.20
2023-01-23T03:27:56.018Z,18.43
2023-01-23T03:30:25.617Z,20.93
2023-01-23T03:32:55.449Z,17.73
2023-01-23T03:35:25.373Z,19.10
2023-01-23T03:37:55.163Z,20.37
2023-01-23T03:40:40.971Z,21.27
2023-01-23T03:43:13.426Z,19.57
2023-01-23T03:45:43.297Z,17.10
2023-01-23T03:48:13.117Z,20.63
2023-01-23T03:50:42.872Z,19.50
2023-01-23T03:53:12.837Z,23.20
2023-01-23T03:55:42.558Z,19.53
2023-01-23T03:58:14.912Z,20.90
2023-01-23T04:00:44.906Z,19.87
2023-01-23T04:03:14.884Z,18.63
2023-01-23T04:05:44.610Z,19.63
2023-01-23T04:08:14.408Z,21.70
2023-01-23T04:10:44.204Z,20.80
2023-01-23T04:13:17.393Z,20.57
2023-01-23T04:15:47.305Z,21.27
2023-01-23T04:18:17.072Z,21.30
2023-01-23T04:20:46.957Z,20.20
2023-01-23T04:23:16.742Z,19.93
2023-01-23T04:25:46.613Z,19.77
2023-01-23T04:28:19.041Z,20.40
2023-01-23T04:30:49.247Z,21.57
2023-01-23T04:33:19.153Z,20.70
2023-01-23T04:35:58.091Z,20.60
2023-01-23T04:38:29.892Z,19.23
2023-01-23T04:41:00.433Z,25.50
2023-01-23T04:43:33.116Z,21.33
2023-01-23T04:46:03.001Z,24.53
2023-01-23T04:48:32.820Z,19.40
2023-01-23T04:51:02.719Z,23.00
2023-01-23T04:53:32.498Z,22.53
2023-01-23T04:56:02.792Z,25.53
2023-01-23T04:58:35.268Z,24.07
2023-01-23T05:01:09.346Z,24.83
2023-01-23T05:03:39.196Z,26.13
2023-01-23T05:06:09.738Z,22.67
2023-01-23T05:08:39.570Z,23.27
2023-01-23T05:11:09.318Z,19.80
2023-01-23T05:13:41.764Z,24.70
2023-01-23T05:16:11.814Z,25.07
2023-01-23T05:18:41.948Z,23.63
2023-01-23T05:21:11.784Z,24.13
2023-01-23T05:23:44.525Z,26.57
2023-01-23T05:26:14.373Z,25.57
2023-01-23T05:28:46.768Z,22.47
2023-01-23T05:31:16.713Z,26.90
2023-01-23T05:33:46.611Z,28.87
2023-01-23T05:36:18.462Z,26.60
2023-01-23T05:38:48.669Z,29.77
2023-01-23T05:41:18.446Z,29.43
2023-01-23T05:43:52.099Z,25.67
2023-01-23T05:46:24.459Z,26.53
2023-01-23T05:48:57.942Z,24.00
2023-01-23T05:51:35.335Z,28.50
2023-01-23T05:54:21.783Z,27.57
2023-01-23T05:56:51.506Z,26.57
2023-01-23T05:59:24.331Z,25.40
2023-01-23T06:02:00.416Z,28.87
2023-01-23T06:04:41.744Z,38.13
2023-01-23T06:07:21.580Z,32.50
2023-01-23T06:09:58.760Z,29.37
2023-01-23T06:12:29.227Z,29.13
2023-01-23T06:15:01.744Z,31.53
2023-01-23T06:17:31.524Z,31.60
2023-01-23T06:20:01.305Z,30.87
2023-01-23T06:22:31.588Z,28.97
2023-01-23T06:25:01.348Z,29.87
2023-01-23T06:27:31.273Z,28.03
2023-01-23T06:30:04.040Z,29.47
2023-01-23T06:32:33.890Z,26.67
2023-01-23T06:35:03.697Z,28.33
2023-01-23T06:37:33.545Z,30.90
2023-01-23T06:40:03.454Z,29.10
2023-01-23T06:42:33.219Z,29.43
2023-01-23T06:45:05.662Z,34.60
2023-01-23T06:47:35.459Z,28.53
2023-01-23T06:50:06.290Z,27.67
2023-01-23T06:52:36.350Z,28.83
2023-01-23T06:55:10.036Z,26.47
2023-01-23T06:57:40.986Z,28.83
2023-01-23T07:00:15.299Z,28.07
2023-01-23T07:02:47.863Z,24.50
2023-01-23T07:05:21.082Z,25.87
2023-01-23T07:07:56.557Z,26.53
2023-01-23T07:10:27.055Z,23.93
2023-01-23T07:12:56.992Z,26.60
2023-01-23T07:15:29.344Z,28.10
2023-01-23T07:17:59.365Z,23.33
2023-01-23T07:20:29.999Z,21.63
2023-01-23T07:23:02.523Z,24.67
2023-01-23T07:25:33.313Z,23.37
2023-01-23T07:28:03.130Z,28.67
2023-01-23T07:30:35.896Z,22.30
2023-01-23T07:33:06.361Z,27.40
2023-01-23T07:35:36.224Z,32.43
2023-01-23T07:38:06.203Z,22.87
2023-01-23T07:40:39.117Z,22.50
2023-01-23T07:43:08.873Z,24.90
2023-01-23T07:45:41.684Z,24.57
2023-01-23T07:48:11.654Z,25.40
2023-01-23T07:50:41.522Z,19.33
2023-01-23T07:53:11.523Z,22.73
2023-01-23T07:55:42.019Z,19.80
2023-01-23T07:58:11.874Z,29.43
2023-01-23T08:00:44.581Z,22.30
2023-01-23T08:03:14.507Z,18.57
2023-01-23T08:05:44.326Z,24.70
2023-01-23T08:08:14.236Z,19.47
2023-01-23T08:10:44.003Z,19.50
2023-01-23T08:13:14.203Z,19.70
2023-01-23T08:15:46.801Z,20.63
2023-01-23T08:18:16.657Z,21.77
2023-01-23T08:20:46.437Z,23.87
2023-01-23T08:23:16.252Z,22.23
2023-01-23T08:25:46.299Z,22.77
2023-01-23T08:28:16.274Z,20.40
2023-01-23T08:30:51.952Z,24.60
2023-01-23T08:33:23.028Z,19.83
2023-01-23T08:35:54.032Z,21.10
2023-01-23T08:38:24.301Z,29.03
2023-01-23T08:40:56.013Z,30.97
2023-01-23T08:43:25.819Z,20.33
2023-01-23T08:45:59.817Z,22.57
2023-01-23T08:48:31.076Z,23.63
2023-01-23T08:51:05.966Z,25.37
2023-01-23T08:53:37.190Z,23.97
2023-01-23T08:56:09.488Z,24.53
2023-01-23T08:58:39.525Z,26.13
2023-01-23T09:01:14.776Z,23.73
2023-01-23T09:03:44.633Z,24.13
2023-01-23T09:06:15.323Z,25.40
2023-01-23T09:08:45.508Z,25.67
2023-01-23T09:11:16.327Z,27.83
2023-01-23T09:13:46.270Z,27.93
2023-01-23T09:16:19.139Z,29.47
2023-01-23T09:18:49.003Z,26.53
2023-01-23T09:21:20.267Z,31.80
2023-01-23T09:23:50.046Z,25.23
2023-01-23T09:26:20.140Z,25.37
2023-01-23T09:28:50.012Z,29.50
2023-01-23T09:31:22.844Z,31.67
2023-01-23T09:33:52.661Z,24.70
2023-01-23T09:36:33.837Z,22.93
2023-01-23T09:39:11.297Z,22.30
2023-01-23T09:41:42.521Z,28.23
2023-01-23T09:44:18.118Z,20.60
2023-01-23T09:46:54.336Z,21.40
2023-01-23T09:49:30.983Z,28.33
2023-01-23T09:52:04.833Z,19.60
2023-01-23T09:54:46.702Z,23.73
2023-01-23T09:57:19.907Z,22.17
2023-01-23T09:59:59.869Z,21.97
2023-01-23T10:02:33.571Z,20.33
2023-01-23T10:05:05.476Z,21.07
2023-01-23T10:08:08.496Z,20.83
2023-01-23T10:11:00.200Z,22.23
2023-01-23T10:13:56.173Z,20.43
2023-01-23T10:16:49.832Z,17.23
2023-01-23T10:19:44.744Z,15.70
2023-01-23T10:22:34.504Z,18.70
2023-01-23T10:25:17.777Z,18.43
2023-01-23T10:27:50.991Z,19.87
2023-01-23T10:30:27.341Z,19.80
2023-01-23T10:33:00.981Z,19.57
2023-01-23T10:35:39.785Z,18.60
2023-01-23T10:38:21.222Z,19.23
2023-01-23T10:41:03.568Z,20.13
2023-01-23T10:43:33.801Z,19.53
2023-01-23T10:46:04.174Z,20.73
2023-01-23T10:48:44.593Z,14.53
2023-01-23T10:51:50.804Z,20.13
2023-01-23T10:54:31.895Z,18.23
2023-01-23T10:57:04.884Z,19.33
2023-01-23T10:59:38.688Z,18.63
2023-01-23T11:02:24.485Z,17.60
2023-01-23T11:04:54.799Z,17.90
2023-01-23T11:07:29.241Z,21.50
2023-01-23T11:10:01.336Z,16.07
2023-01-23T11:12:33.716Z,15.30
2023-01-23T11:15:24.381Z,14.97
2023-01-23T11:17:55.570Z,15.00
2023-01-23T11:20:29.685Z,16.10
2023-01-23T11:23:17.923Z,17.77
2023-01-23T11:25:49.636Z,16.57
2023-01-23T11:28:27.479Z,15.53
2023-01-23T11:31:12.771Z,15.67
2023-01-23T11:33:52.416Z,17.33
2023-01-23T11:36:41.644Z,17.43
2023-01-23T11:39:25.712Z,16.37
2023-01-23T11:41:55.536Z,12.83
2023-01-23T11:44:30.102Z,14.63
2023-01-23T11:47:36.092Z,14.17
2023-01-23T11:50:25.392Z,12.77
2023-01-23T11:53:06.338Z,12.90
2023-01-23T11:56:21.476Z,14.97
2023-01-23T11:59:20.662Z,13.63
2023-01-23T12:02:04.426Z,17.03
2023-01-23T12:04:49.196Z,15.73
2023-01-23T12:07:21.559Z,8.47
2023-01-23T12:10:03.542Z,8.47
2023-01-23T12:12:52.413Z,8.77
2023-01-23T12:15:35.519Z,10.10
2023-01-23T12:18:22.256Z,7.27
2023-01-23T12:29:50.941Z,8.67
2023-01-23T12:32:45.075Z,9.13
2023-01-23T12:41:18.026Z,10.23
2023-01-23T12:43:58.942Z,11.33
2023-01-23T12:46:36.842Z,14.27
2023-01-23T12:49:24.675Z,12.20
2023-01-23T12:52:00.449Z,10.47
2023-01-23T12:54:38.879Z,12.97
2023-01-23T12:57:12.821Z,14.03
2023-01-23T13:00:01.311Z,12.00
2023-01-23T13:02:40.804Z,15.03
2023-01-23T13:05:22.939Z,15.70
2023-01-23T13:08:00.219Z,18.30
2023-01-23T13:11:12.201Z,18.83
2023-01-23T13:13:43.007Z,19.40
2023-01-23T13:16:15.572Z,18.73
2023-01-23T13:19:08.799Z,16.93
2023-01-23T13:21:54.008Z,20.10
2023-01-23T13:24:59.344Z,18.30
2023-01-23T13:27:44.996Z,22.07
2023-01-23T13:30:44.719Z,17.07
2023-01-23T13:34:06.751Z,18.27
2023-01-23T13:36:48.433Z,19.13
2023-01-23T13:39:29.020Z,19.00
2023-01-23T13:42:28.699Z,18.83
2023-01-23T13:45:31.168Z,17.90
2023-01-23T14:20:40.044Z,18.67
2023-01-23T14:23:30.761Z,19.23
2023-01-23T14:26:00.812Z,22.63
2023-01-23T14:28:33.825Z,21.53
2023-01-23T14:31:06.196Z,19.27
2023-01-23T14:33:48.099Z,18.57
2023-01-23T14:36:21.653Z,18.60
2023-01-23T14:38:53.188Z,16.70
2023-01-23T14:41:31.126Z,18.63
2023-01-23T14:44:06.209Z,20.30
2023-01-23T14:46:40.283Z,20.50
2023-01-23T14:49:12.230Z,23.37
2023-01-23T14:51:41.997Z,20.30
2023-01-23T14:54:23.234Z,17.57
2023-01-23T14:56:56.605Z,18.77
2023-01-23T14:59:34.226Z,21.07
2023-01-23T15:02:19.777Z,19.30
2023-01-23T15:05:23.148Z,20.17
2023-01-23T15:07:56.392Z,19.00
2023-01-23T15:10:28.878Z,20.77
2023-01-23T15:13:02.156Z,20.53
2023-01-23T15:15:36.735Z,22.63
2023-01-23T15:18:22.059Z,19.20
2023-01-23T15:20:56.944Z,19.43
2023-01-23T15:23:31.986Z,21.17
2023-01-23T15:26:27.094Z,19.77
2023-01-23T15:28:58.274Z,18.73
2023-01-23T15:31:33.592Z,22.00
2023-01-23T15:34:22.083Z,23.93
2023-01-23T15:36:56.260Z,23.50
2023-01-23T15:39:28.743Z,21.20
2023-01-23T15:42:02.415Z,18.67
2023-01-23T15:44:34.203Z,18.23
2023-01-23T15:47:06.778Z,19.07
2023-01-23T15:49:38.450Z,18.47
2023-01-23T15:52:21.596Z,18.13
2023-01-23T15:54:53.987Z,17.27
2023-01-23T15:57:23.786Z,15.13
2023-01-23T15:59:53.820Z,16.03
2023-01-23T16:02:32.619Z,18.13
2023-01-23T16:05:04.019Z,17.43
2023-01-23T16:07:35.738Z,20.77
2023-01-23T16:10:08.277Z,18.53
2023-01-23T16:12:40.187Z,17.37
2023-01-23T16:15:17.810Z,15.03
2023-01-23T16:17:50.855Z,14.97
2023-01-23T16:20:23.009Z,15.50
2023-01-23T16:22:55.292Z,17.23
2023-01-23T16:25:43.072Z,14.27
2023-01-23T16:28:15.904Z,13.33
2023-01-23T16:30:46.061Z,15.33
2023-01-23T16:33:19.055Z,17.53
2023-01-23T16:35:50.226Z,16.00
2023-01-23T16:38:23.964Z,13.90
2023-01-23T16:40:55.066Z,15.93
2023-01-23T16:43:26.263Z,14.07
2023-01-23T16:45:56.835Z,11.10
2023-01-23T16:48:29.451Z,14.70
2023-01-23T16:51:02.265Z,17.10
2023-01-23T16:53:34.312Z,12.63
2023-01-23T16:56:05.753Z,15.23
2023-01-23T16:58:41.054Z,15.43
2023-01-23T17:01:16.985Z,14.67
2023-01-23T17:03:57.292Z,13.17
2023-01-23T17:06:27.215Z,14.40
2023-01-23T17:08:57.492Z,12.60
2023-01-23T17:11:33.860Z,15.20
2023-01-23T17:14:09.192Z,14.20
2023-01-23T17:16:39.140Z,13.23
2023-01-23T17:19:19.242Z,14.13
2023-01-23T17:21:49.833Z,15.23
2023-01-23T17:24:20.894Z,16.37
2023-01-23T17:26:51.005Z,16.20
2023-01-23T17:29:21.130Z,16.87
2023-01-23T17:31:52.558Z,16.03
2023-01-23T17:34:28.317Z,12.93
2023-01-23T17:36:59.482Z,16.93
2023-01-23T17:39:29.312Z,14.37
2023-01-23T17:41:59.692Z,17.47
2023-01-23T17:44:29.404Z,14.80
2023-01-23T17:46:59.908Z,13.73
2023-01-23T17:49:34.065Z,13.77
2023-01-23T17:52:04.650Z,16.37
2023-01-23T17:54:34.707Z,13.13
2023-01-23T17:57:04.472Z,13.00
2023-01-23T17:59:34.263Z,15.43
2023-01-23T18:02:04.169Z,15.90
2023-01-23T18:04:36.833Z,15.67
2023-01-23T18:07:06.627Z,14.87
2023-01-23T18:09:36.466Z,13.90
2023-01-23T18:12:08.104Z,14.23
2023-01-23T18:14:46.776Z,14.50
2023-01-23T18:17:23.040Z,12.43
2023-01-23T18:19:57.234Z,15.87
2023-01-23T18:22:27.826Z,9.80
2023-01-23T18:24:58.821Z,15.30
2023-01-23T18:27:30.007Z,12.73
2023-01-23T18:30:26.287Z,14.40
2023-01-23T18:33:15.106Z,12.70
2023-01-23T18:36:04.204Z,13.33
2023-01-23T18:38:45.363Z,15.03
2023-01-23T18:41:23.223Z,15.00
2023-01-23T18:43:57.148Z,13.40
2023-01-23T18:46:28.363Z,17.27
2023-01-23T18:48:58.794Z,15.20
2023-01-23T18:51:41.740Z,14.70
2023-01-23T18:54:30.722Z,16.80
2023-01-23T18:57:13.169Z,14.50
2023-01-23T18:59:49.565Z,14.97
2023-01-23T19:02:34.728Z,14.57
2023-01-23T19:05:29.184Z,14.30
2023-01-23T19:08:02.876Z,13.13
2023-01-23T19:10:47.676Z,13.80
2023-01-23T19:13:22.883Z,13.20
2023-01-23T19:16:01.937Z,14.50
2023-01-23T19:18:47.175Z,13.27
2023-01-23T19:21:23.367Z,13.53
2023-01-23T19:24:02.225Z,14.57
2023-01-23T19:26:35.098Z,13.87
2023-01-23T19:29:20.964Z,16.10
2023-01-23T19:32:04.159Z,15.27
2023-01-23T19:34:35.687Z,15.90
2023-01-23T19:37:06.008Z,13.17
2023-01-23T19:39:38.556Z,15.07
2023-01-23T19:42:08.507Z,14.67
2023-01-23T19:44:38.464Z,16.87
2023-01-23T19:47:08.796Z,17.47
2023-01-23T19:49:38.950Z,13.87
2023-01-23T19:52:09.861Z,15.23
2023-01-23T19:54:42.671Z,13.10
2023-01-23T19:57:13.803Z,12.17
2023-01-23T19:59:43.809Z,15.53
2023-01-23T20:02:20.764Z,13.90
2023-01-23T20:04:51.112Z,16.07
2023-01-23T20:07:20.892Z,15.53
2023-01-23T20:09:53.448Z,14.27
2023-01-23T20:12:23.398Z,14.40
2023-01-23T20:14:53.292Z,12.40
2023-01-23T20:17:23.421Z,12.90
2023-01-23T20:19:53.669Z,12.53
2023-01-23T20:22:23.618Z,14.67
2023-01-23T20:24:55.962Z,14.37
2023-01-23T20:27:25.892Z,13.43
2023-01-23T20:29:55.693Z,13.20
2023-01-23T20:32:25.822Z,15.07
2023-01-23T20:34:57.573Z,12.47
2023-01-23T20:37:27.619Z,10.10
2023-01-23T20:40:00.217Z,13.53
2023-01-23T20:42:30.034Z,13.70
2023-01-23T20:44:59.880Z,15.33
2023-01-23T20:47:29.895Z,15.67
2023-01-23T20:49:59.998Z,14.77
2023-01-23T20:52:42.216Z,19.17
2023-01-23T20:55:15.167Z,14.27
2023-01-23T20:57:57.499Z,16.97
2023-01-23T21:00:29.877Z,16.33
2023-01-23T21:02:59.875Z,18.13
2023-01-23T21:05:29.663Z,15.60
2023-01-23T21:07:59.409Z,20.73
2023-01-23T21:10:34.965Z,17.03
2023-01-23T21:13:05.338Z,15.33
2023-01-23T21:15:35.426Z,16.00
2023-01-23T21:18:05.290Z,15.93
2023-01-23T21:20:35.957Z,16.00
2023-01-23T21:23:06.191Z,16.03
2023-01-23T21:25:40.940Z,17.57
2023-01-23T21:28:10.785Z,17.67
2023-01-23T21:30:41.671Z,17.43
2023-01-23T21:33:11.665Z,19.87
2023-01-23T21:35:41.565Z,16.03
2023-01-23T21:38:11.344Z,15.90
2023-01-23T21:40:44.495Z,16.53
2023-01-23T21:43:14.741Z,18.03
2023-01-23T21:45:45.068Z,17.97
2023-01-23T21:48:14.882Z,14.47
2023-01-23T21:50:44.697Z,15.80
2023-01-23T21:53:14.507Z,15.90
2023-01-23T21:55:47.282Z,17.47
2023-01-23T21:58:17.167Z,15.23
2023-01-23T22:00:59.404Z,16.43
2023-01-23T22:03:29.152Z,14.70
2023-01-23T22:06:01.636Z,18.30
2023-01-23T22:08:31.602Z,14.93
2023-01-23T22:11:04.109Z,14.50
2023-01-23T22:13:34.152Z,16.50
2023-01-23T22:16:05.229Z,15.07
2023-01-23T22:18:36.652Z,16.63
2023-01-23T22:21:08.371Z,16.13
2023-01-23T22:23:38.221Z,15.00
2023-01-23T22:26:14.041Z,12.23
2023-01-23T22:28:44.123Z,18.17
2023-01-23T22:31:16.640Z,21.47
2023-01-23T22:33:49.089Z,16.80
2023-01-23T22:36:20.270Z,13.77
2023-01-23T22:38:53.807Z,19.70
2023-01-23T22:41:26.581Z,15.60
2023-01-23T22:43:57.097Z,16.97
2023-01-23T22:46:27.213Z,22.27
2023-01-23T22:48:57.471Z,20.33
2023-01-23T22:51:29.650Z,19.93
2023-01-23T22:54:01.009Z,19.80
2023-01-23T22:56:34.892Z,18.27
2023-01-23T22:59:05.277Z,16.40
2023-01-23T23:01:35.205Z,8.03
2023-01-23T23:04:05.212Z,18.63
2023-01-23T23:06:35.190Z,19.70
2023-01-23T23:09:05.769Z,17.20
2023-01-23T23:11:38.298Z,18.37
2023-01-23T23:14:08.197Z,17.63
2023-01-23T23:16:37.966Z,16.50
2023-01-23T23:19:09.910Z,19.03
2023-01-23T23:21:40.211Z,15.10
2023-01-23T23:24:14.727Z,17.30
2023-01-23T23:26:48.210Z,18.93
2023-01-23T23:29:19.004Z,18.60
2023-01-23T23:31:51.698Z,15.27
2023-01-23T23:34:21.871Z,17.43
2023-01-23T23:36:51.864Z,16.90
2023-01-23T23:39:21.970Z,14.80
2023-01-23T23:41:54.791Z,17.50
2023-01-23T23:44:24.925Z,21.00
2023-01-23T23:46:55.261Z,17.67
2023-01-23T23:49:26.751Z,16.53
2023-01-23T23:51:56.524Z,18.73
2023-01-23T23:54:26.250Z,15.20
2023-01-23T23:56:58.819Z,18.57
2023-01-23T23:59:29.082Z,17.20
